Atmautluak, Alaska
Current Conditions -  °F | °C
As of 5:53 AM on Friday 19 Dec 2014 (Local Time) from PABE Reporting Station
Clear Clear  
Wind Chill: -21°   Ceiling: Unl
Heat Index: -12°   Visibility: 10mi
Dew Point: -14°   Wind: 14mph
Humidity: 87%   Direction: 30°NNE
Pressure: 29.16"   Gusts: NA
Location:  60.7494°N, 161.727°W
Report Text: PABE 191453Z 03012KT 10SM CLR M12/M14 A2916 RMK AO2 SLP877 T11221139 56009
Loading
Personal Weather Stations






























Interactive Weather Map New forecast layout! Learn more

10-Day Weather Forecast

Advertisements
Track Severe Weather on mobile